AZU4545 SBBE-SBEG
Flight info
| Callsign | AZU4545 |
|---|---|
| Flight time | 1h 43m |
| Altitude | 360 |
| Route | ILMAN UZ81 KULAB |
| Aircraft | A20N/M-SDE2E3FGHIJ1RWXY/LB1 |
Departure
| Time | 2026-05-06 20:05 |
|---|---|
| Airport | Val de Cans/Júlio Cezar Ribeiro International Airport (SBBE) |
Arrival
| Time | 2026-05-06 21:48 |
|---|---|
| Airport | Eduardo Gomes International Airport (SBEG) |
| Time | Latitude | Longitude | Altitude | Speed | Heading |
|---|---|---|---|---|---|
| 2026-05-06 19:47 | -1.38995 | -48.47890 | 43 ft | 0 kts | 275° |
| 2026-05-06 19:54 | -1.38995 | -48.47889 | 43 ft | 1 kts | 275° |
| 2026-05-06 19:54 | -1.38996 | -48.47881 | 43 ft | 1 kts | 275° |
| 2026-05-06 19:54 | -1.38997 | -48.47873 | 43 ft | 1 kts | 275° |
| 2026-05-06 19:55 | -1.38997 | -48.47866 | 41 ft | 1 kts | 275° |
| 2026-05-06 19:55 | -1.38998 | -48.47858 | 40 ft | 1 kts | 275° |
| 2026-05-06 19:55 | -1.38999 | -48.47850 | 41 ft | 1 kts | 275° |
| 2026-05-06 19:55 | -1.38999 | -48.47842 | 40 ft | 1 kts | 279° |
| 2026-05-06 19:56 | -1.39001 | -48.47835 | 40 ft | 1 kts | 306° |
| 2026-05-06 19:56 | -1.39006 | -48.47829 | 41 ft | 1 kts | 335° |
| 2026-05-06 19:56 | -1.39013 | -48.47826 | 42 ft | 0 kts | 0° |
| 2026-05-06 19:59 | -1.39012 | -48.47826 | 42 ft | 1 kts | 0° |
| 2026-05-06 19:59 | -1.38994 | -48.47821 | 33 ft | 6 kts | 11° |
| 2026-05-06 19:59 | -1.38932 | -48.47812 | 43 ft | 12 kts | 4° |
| 2026-05-06 19:59 | -1.38905 | -48.47810 | 43 ft | 1 kts | 4° |
| 2026-05-06 20:00 | -1.38881 | -48.47810 | 42 ft | 6 kts | 2° |
| 2026-05-06 20:00 | -1.38818 | -48.47806 | 43 ft | 11 kts | 6° |
| 2026-05-06 20:00 | -1.38725 | -48.47795 | 43 ft | 16 kts | 6° |
| 2026-05-06 20:00 | -1.38670 | -48.47826 | 43 ft | 8 kts | 276° |
| 2026-05-06 20:01 | -1.38668 | -48.47895 | 44 ft | 12 kts | 271° |
| 2026-05-06 20:01 | -1.38671 | -48.47987 | 43 ft | 15 kts | 269° |
| 2026-05-06 20:01 | -1.38673 | -48.48097 | 44 ft | 17 kts | 269° |
| 2026-05-06 20:01 | -1.38680 | -48.48222 | 43 ft | 16 kts | 252° |
| 2026-05-06 20:02 | -1.38759 | -48.48300 | 42 ft | 17 kts | 224° |
| 2026-05-06 20:02 | -1.38790 | -48.48331 | 44 ft | 4 kts | 228° |
| 2026-05-06 20:02 | -1.38811 | -48.48361 | 62 ft | 7 kts | 250° |
| 2026-05-06 20:02 | -1.38818 | -48.48422 | 43 ft | 11 kts | 269° |
| 2026-05-06 20:03 | -1.38797 | -48.48482 | 43 ft | 6 kts | 346° |
| 2026-05-06 20:03 | -1.38773 | -48.48469 | 43 ft | 6 kts | 37° |
| 2026-05-06 20:03 | -1.38744 | -48.48440 | 42 ft | 0 kts | 46° |
| 2026-05-06 20:04 | -1.38621 | -48.48314 | 42 ft | 63 kts | 44° |
| 2026-05-06 20:04 | -1.38147 | -48.47836 | 42 ft | 127 kts | 45° |
| 2026-05-06 20:04 | -1.37481 | -48.47140 | 479 ft | 135 kts | 48° |
| 2026-05-06 20:05 | -1.36857 | -48.46452 | 1105 ft | 134 kts | 46° |
| 2026-05-06 20:05 | -1.36170 | -48.45747 | 1555 ft | 148 kts | 44° |
| 2026-05-06 20:05 | -1.35402 | -48.44998 | 2031 ft | 162 kts | 43° |
| 2026-05-06 20:05 | -1.34498 | -48.44238 | 2470 ft | 181 kts | 28° |
| 2026-05-06 20:06 | -1.33202 | -48.43912 | 2921 ft | 207 kts | 356° |
| 2026-05-06 20:06 | -1.31802 | -48.44408 | 3436 ft | 231 kts | 323° |
| 2026-05-06 20:06 | -1.30757 | -48.45725 | 3997 ft | 255 kts | 292° |
| 2026-05-06 20:06 | -1.30469 | -48.47543 | 4557 ft | 277 kts | 262° |
| 2026-05-06 20:07 | -1.31045 | -48.49374 | 5406 ft | 281 kts | 243° |
| 2026-05-06 20:07 | -1.31930 | -48.51138 | 6382 ft | 285 kts | 242° |
| 2026-05-06 20:07 | -1.32747 | -48.52946 | 7269 ft | 290 kts | 246° |
| 2026-05-06 20:07 | -1.33450 | -48.54859 | 8180 ft | 294 kts | 250° |
| 2026-05-06 20:08 | -1.34053 | -48.56812 | 9066 ft | 299 kts | 253° |
| 2026-05-06 20:08 | -1.34616 | -48.58832 | 9935 ft | 303 kts | 254° |
| 2026-05-06 20:08 | -1.35176 | -48.60921 | 10451 ft | 321 kts | 254° |
| 2026-05-06 20:08 | -1.35776 | -48.63174 | 10726 ft | 345 kts | 254° |
| 2026-05-06 20:09 | -1.36412 | -48.65552 | 11200 ft | 358 kts | 254° |
| 2026-05-06 20:09 | -1.37055 | -48.67949 | 11965 ft | 362 kts | 254° |
| 2026-05-06 20:09 | -1.37715 | -48.70401 | 12731 ft | 366 kts | 254° |
| 2026-05-06 20:09 | -1.38383 | -48.72880 | 13476 ft | 371 kts | 254° |
| 2026-05-06 20:10 | -1.39052 | -48.75362 | 14163 ft | 375 kts | 254° |
| 2026-05-06 20:10 | -1.39739 | -48.77907 | 14832 ft | 379 kts | 254° |
| 2026-05-06 20:10 | -1.40423 | -48.80444 | 15476 ft | 383 kts | 254° |
| 2026-05-06 20:10 | -1.41123 | -48.83041 | 16130 ft | 386 kts | 254° |
| 2026-05-06 20:11 | -1.41827 | -48.85652 | 16750 ft | 390 kts | 253° |
| 2026-05-06 20:11 | -1.42532 | -48.88265 | 17366 ft | 394 kts | 253° |
| 2026-05-06 20:11 | -1.43254 | -48.90938 | 17968 ft | 398 kts | 253° |
| 2026-05-06 20:11 | -1.43971 | -48.93595 | 18523 ft | 401 kts | 253° |
| 2026-05-06 20:12 | -1.44706 | -48.96316 | 19083 ft | 403 kts | 253° |
| 2026-05-06 20:12 | -1.45432 | -48.99004 | 19620 ft | 405 kts | 253° |
| 2026-05-06 20:12 | -1.46172 | -49.01742 | 20167 ft | 408 kts | 253° |
| 2026-05-06 20:12 | -1.46918 | -49.04507 | 20704 ft | 410 kts | 253° |
| 2026-05-06 20:13 | -1.47660 | -49.07252 | 21237 ft | 413 kts | 253° |
| 2026-05-06 20:13 | -1.48415 | -49.10046 | 21756 ft | 416 kts | 253° |
| 2026-05-06 20:13 | -1.49161 | -49.12820 | 22284 ft | 418 kts | 255° |
| 2026-05-06 20:13 | -1.49723 | -49.15684 | 22799 ft | 422 kts | 259° |
| 2026-05-06 20:14 | -1.50197 | -49.18599 | 23307 ft | 425 kts | 259° |
| 2026-05-06 20:14 | -1.50681 | -49.21534 | 23756 ft | 427 kts | 259° |
| 2026-05-06 20:14 | -1.51170 | -49.24480 | 24165 ft | 430 kts | 259° |
| 2026-05-06 20:14 | -1.51657 | -49.27412 | 24574 ft | 433 kts | 259° |
| 2026-05-06 20:15 | -1.52153 | -49.30402 | 24974 ft | 436 kts | 259° |
| 2026-05-06 20:15 | -1.52646 | -49.33371 | 25360 ft | 438 kts | 259° |
| 2026-05-06 20:15 | -1.53151 | -49.36412 | 25759 ft | 441 kts | 259° |
| 2026-05-06 20:15 | -1.53650 | -49.39422 | 26134 ft | 443 kts | 259° |
| 2026-05-06 20:16 | -1.54159 | -49.42492 | 26509 ft | 446 kts | 259° |
| 2026-05-06 20:16 | -1.54664 | -49.45538 | 26875 ft | 448 kts | 259° |
| 2026-05-06 20:16 | -1.55178 | -49.48632 | 27230 ft | 451 kts | 259° |
| 2026-05-06 20:16 | -1.55696 | -49.51754 | 27581 ft | 454 kts | 259° |
| 2026-05-06 20:17 | -1.56210 | -49.54853 | 27919 ft | 456 kts | 258° |
| 2026-05-06 20:17 | -1.56732 | -49.58003 | 28255 ft | 459 kts | 258° |
| 2026-05-06 20:17 | -1.57251 | -49.61129 | 28577 ft | 461 kts | 258° |
| 2026-05-06 20:17 | -1.57779 | -49.64313 | 28901 ft | 463 kts | 258° |
| 2026-05-06 20:18 | -1.58310 | -49.67514 | 29217 ft | 466 kts | 258° |
| 2026-05-06 20:18 | -1.58841 | -49.70720 | 29525 ft | 468 kts | 258° |
| 2026-05-06 20:18 | -1.59376 | -49.73946 | 29834 ft | 471 kts | 258° |
| 2026-05-06 20:18 | -1.59914 | -49.77188 | 30126 ft | 473 kts | 258° |
| 2026-05-06 20:19 | -1.60449 | -49.80418 | 30389 ft | 475 kts | 258° |
| 2026-05-06 20:19 | -1.60996 | -49.83713 | 30663 ft | 477 kts | 259° |
| 2026-05-06 20:19 | -1.61533 | -49.86957 | 30949 ft | 479 kts | 259° |
| 2026-05-06 20:19 | -1.62081 | -49.90261 | 31289 ft | 480 kts | 259° |
| 2026-05-06 20:20 | -1.62627 | -49.93558 | 31669 ft | 479 kts | 259° |
| 2026-05-06 20:20 | -1.63173 | -49.96849 | 32061 ft | 479 kts | 259° |
| 2026-05-06 20:20 | -1.63712 | -50.00106 | 32442 ft | 478 kts | 259° |
| 2026-05-06 20:20 | -1.64257 | -50.03394 | 32817 ft | 477 kts | 259° |
| 2026-05-06 20:21 | -1.64795 | -50.06633 | 33183 ft | 476 kts | 260° |
| 2026-05-06 20:21 | -1.65340 | -50.09921 | 33546 ft | 476 kts | 260° |
| 2026-05-06 20:21 | -1.65881 | -50.13183 | 33894 ft | 475 kts | 260° |
| 2026-05-06 20:21 | -1.66422 | -50.16445 | 34223 ft | 474 kts | 260° |
| 2026-05-06 20:22 | -1.66957 | -50.19674 | 34570 ft | 472 kts | 260° |
| 2026-05-06 20:22 | -1.67493 | -50.22912 | 34903 ft | 470 kts | 260° |
| 2026-05-06 20:22 | -1.68028 | -50.26141 | 35228 ft | 469 kts | 260° |
| 2026-05-06 20:22 | -1.68554 | -50.29322 | 35540 ft | 467 kts | 260° |
| 2026-05-06 20:23 | -1.69085 | -50.32529 | 35828 ft | 466 kts | 260° |
| 2026-05-06 20:23 | -1.69615 | -50.35733 | 35917 ft | 464 kts | 260° |
| 2026-05-06 20:23 | -1.70663 | -50.42068 | 35926 ft | 463 kts | 260° |
| 2026-05-06 20:24 | -1.71715 | -50.48423 | 35926 ft | 464 kts | 260° |
| 2026-05-06 20:24 | -1.72772 | -50.54811 | 35925 ft | 464 kts | 260° |
| 2026-05-06 20:25 | -1.73821 | -50.61156 | 35926 ft | 463 kts | 260° |
| 2026-05-06 20:25 | -1.74869 | -50.67493 | 35923 ft | 464 kts | 260° |
| 2026-05-06 20:26 | -1.75925 | -50.73880 | 35921 ft | 464 kts | 260° |
| 2026-05-06 20:26 | -1.76972 | -50.80220 | 35923 ft | 464 kts | 260° |
| 2026-05-06 20:27 | -1.78022 | -50.86574 | 35923 ft | 464 kts | 260° |
| 2026-05-06 20:27 | -1.79074 | -50.92944 | 35920 ft | 464 kts | 260° |
| 2026-05-06 20:28 | -1.80124 | -50.99300 | 35923 ft | 464 kts | 260° |
| 2026-05-06 20:28 | -1.81175 | -51.05665 | 35923 ft | 464 kts | 260° |
| 2026-05-06 20:29 | -1.82056 | -51.11001 | 35925 ft | 464 kts | 260° |
| 2026-05-06 20:29 | -1.83102 | -51.17339 | 35922 ft | 464 kts | 260° |
| 2026-05-06 20:30 | -1.84676 | -51.26882 | 35923 ft | 464 kts | 260° |
| 2026-05-06 20:31 | -1.85726 | -51.33248 | 35922 ft | 464 kts | 260° |
| 2026-05-06 20:31 | -1.86782 | -51.39649 | 35924 ft | 464 kts | 260° |
| 2026-05-06 20:32 | -1.87830 | -51.46006 | 35925 ft | 464 kts | 260° |
| 2026-05-06 20:32 | -1.88878 | -51.52363 | 35925 ft | 464 kts | 260° |
| 2026-05-06 20:33 | -1.89930 | -51.58746 | 35924 ft | 464 kts | 260° |
| 2026-05-06 20:33 | -1.90975 | -51.65093 | 35922 ft | 464 kts | 260° |
| 2026-05-06 20:34 | -1.92023 | -51.71453 | 35921 ft | 464 kts | 260° |
| 2026-05-06 20:34 | -1.93072 | -51.77828 | 35918 ft | 464 kts | 260° |
| 2026-05-06 20:35 | -1.94117 | -51.84179 | 35924 ft | 464 kts | 260° |
| 2026-05-06 20:35 | -1.95163 | -51.90534 | 35923 ft | 464 kts | 260° |
| 2026-05-06 20:36 | -1.96214 | -51.96918 | 35921 ft | 464 kts | 260° |
| 2026-05-06 20:36 | -1.97259 | -52.03273 | 35927 ft | 464 kts | 260° |
| 2026-05-06 20:37 | -1.98307 | -52.09641 | 35923 ft | 464 kts | 260° |
| 2026-05-06 20:37 | -1.99350 | -52.15985 | 35922 ft | 463 kts | 260° |
| 2026-05-06 20:38 | -2.00394 | -52.22335 | 35924 ft | 463 kts | 260° |
| 2026-05-06 20:38 | -2.01443 | -52.28719 | 35922 ft | 463 kts | 260° |
| 2026-05-06 20:39 | -2.02486 | -52.35067 | 35920 ft | 463 kts | 260° |
| 2026-05-06 20:39 | -2.03530 | -52.41423 | 35918 ft | 463 kts | 260° |
| 2026-05-06 20:40 | -2.04572 | -52.47769 | 35917 ft | 463 kts | 260° |
| 2026-05-06 20:40 | -2.05603 | -52.54121 | 35917 ft | 463 kts | 260° |
| 2026-05-06 20:41 | -2.06627 | -52.60459 | 35920 ft | 463 kts | 260° |
| 2026-05-06 20:41 | -2.07659 | -52.66832 | 35920 ft | 463 kts | 260° |
| 2026-05-06 20:42 | -2.08688 | -52.73185 | 35923 ft | 463 kts | 260° |
| 2026-05-06 20:42 | -2.09721 | -52.79541 | 35925 ft | 463 kts | 260° |
| 2026-05-06 20:43 | -2.10763 | -52.85927 | 35924 ft | 463 kts | 260° |
| 2026-05-06 20:43 | -2.11793 | -52.92248 | 35929 ft | 463 kts | 260° |
| 2026-05-06 20:44 | -2.12831 | -52.98624 | 35925 ft | 463 kts | 260° |
| 2026-05-06 20:44 | -2.13863 | -53.04963 | 35925 ft | 463 kts | 260° |
| 2026-05-06 20:45 | -2.14900 | -53.11335 | 35926 ft | 463 kts | 260° |
| 2026-05-06 20:45 | -2.15932 | -53.17670 | 35926 ft | 463 kts | 260° |
| 2026-05-06 20:46 | -2.16967 | -53.24010 | 35920 ft | 462 kts | 260° |
| 2026-05-06 20:46 | -2.18003 | -53.30357 | 35920 ft | 463 kts | 260° |
| 2026-05-06 20:47 | -2.19042 | -53.36723 | 35921 ft | 463 kts | 260° |
| 2026-05-06 20:47 | -2.20076 | -53.43067 | 35918 ft | 463 kts | 260° |
| 2026-05-06 20:48 | -2.21112 | -53.49424 | 35920 ft | 463 kts | 260° |
| 2026-05-06 20:48 | -2.22146 | -53.55767 | 35920 ft | 463 kts | 260° |
| 2026-05-06 20:49 | -2.23180 | -53.62116 | 35921 ft | 463 kts | 260° |
| 2026-05-06 20:49 | -2.24214 | -53.68465 | 35922 ft | 463 kts | 260° |
| 2026-05-06 20:50 | -2.25250 | -53.74829 | 35922 ft | 464 kts | 260° |
| 2026-05-06 20:50 | -2.26292 | -53.81222 | 35922 ft | 464 kts | 260° |
| 2026-05-06 20:51 | -2.27328 | -53.87582 | 35927 ft | 464 kts | 260° |
| 2026-05-06 20:51 | -2.28367 | -53.93962 | 35930 ft | 464 kts | 260° |
| 2026-05-06 20:52 | -2.29402 | -54.00313 | 35925 ft | 464 kts | 260° |
| 2026-05-06 20:52 | -2.30434 | -54.06655 | 35927 ft | 463 kts | 260° |
| 2026-05-06 20:53 | -2.31473 | -54.13036 | 35927 ft | 463 kts | 260° |
| 2026-05-06 20:53 | -2.32507 | -54.19391 | 35924 ft | 463 kts | 260° |
| 2026-05-06 20:54 | -2.33544 | -54.25764 | 35923 ft | 463 kts | 260° |
| 2026-05-06 20:54 | -2.34572 | -54.32082 | 35922 ft | 462 kts | 260° |
| 2026-05-06 20:55 | -2.35607 | -54.38446 | 35918 ft | 462 kts | 260° |
| 2026-05-06 20:55 | -2.36642 | -54.44810 | 35915 ft | 462 kts | 260° |
| 2026-05-06 20:56 | -2.37671 | -54.51143 | 35914 ft | 461 kts | 260° |
| 2026-05-06 20:56 | -2.38576 | -54.57460 | 35910 ft | 461 kts | 262° |
| 2026-05-06 20:57 | -2.39428 | -54.63821 | 35911 ft | 461 kts | 262° |
| 2026-05-06 20:57 | -2.40297 | -54.70162 | 35904 ft | 461 kts | 262° |
| 2026-05-06 20:58 | -2.41177 | -54.76535 | 35906 ft | 462 kts | 262° |
| 2026-05-06 20:58 | -2.42059 | -54.82910 | 35906 ft | 462 kts | 262° |
| 2026-05-06 20:59 | -2.42937 | -54.89261 | 35907 ft | 462 kts | 261° |
| 2026-05-06 20:59 | -2.43823 | -54.95666 | 35911 ft | 462 kts | 261° |
| 2026-05-06 21:00 | -2.44699 | -55.02012 | 35916 ft | 463 kts | 262° |
| 2026-05-06 21:00 | -2.45585 | -55.08427 | 35919 ft | 463 kts | 262° |
| 2026-05-06 21:01 | -2.46465 | -55.14804 | 35926 ft | 464 kts | 262° |
| 2026-05-06 21:01 | -2.47344 | -55.21171 | 35927 ft | 464 kts | 262° |
| 2026-05-06 21:02 | -2.48228 | -55.27584 | 35924 ft | 464 kts | 262° |
| 2026-05-06 21:02 | -2.49108 | -55.33964 | 35930 ft | 464 kts | 262° |
| 2026-05-06 21:03 | -2.49981 | -55.40346 | 35937 ft | 464 kts | 262° |
| 2026-05-06 21:03 | -2.50722 | -55.46795 | 35932 ft | 464 kts | 263° |
| 2026-05-06 21:04 | -2.51438 | -55.53201 | 35935 ft | 464 kts | 263° |
| 2026-05-06 21:04 | -2.52170 | -55.59602 | 35934 ft | 464 kts | 263° |
| 2026-05-06 21:05 | -2.52787 | -55.64956 | 35936 ft | 464 kts | 263° |
| 2026-05-06 21:05 | -2.53524 | -55.71342 | 35934 ft | 464 kts | 263° |
| 2026-05-06 21:06 | -2.54261 | -55.77743 | 35932 ft | 464 kts | 263° |
| 2026-05-06 21:06 | -2.54999 | -55.84157 | 35930 ft | 464 kts | 263° |
| 2026-05-06 21:07 | -2.55735 | -55.90556 | 35927 ft | 464 kts | 263° |
| 2026-05-06 21:07 | -2.56476 | -55.96994 | 35923 ft | 464 kts | 263° |
| 2026-05-06 21:08 | -2.57212 | -56.03399 | 35926 ft | 464 kts | 263° |
| 2026-05-06 21:08 | -2.57948 | -56.09802 | 35930 ft | 464 kts | 263° |
| 2026-05-06 21:09 | -2.58689 | -56.16252 | 35932 ft | 465 kts | 263° |
| 2026-05-06 21:09 | -2.59425 | -56.22663 | 35933 ft | 465 kts | 263° |
| 2026-05-06 21:10 | -2.60167 | -56.29123 | 35934 ft | 466 kts | 263° |
| 2026-05-06 21:10 | -2.60906 | -56.35546 | 35938 ft | 466 kts | 263° |
| 2026-05-06 21:11 | -2.61643 | -56.41963 | 35932 ft | 465 kts | 263° |
| 2026-05-06 21:11 | -2.62383 | -56.48382 | 35934 ft | 465 kts | 263° |
| 2026-05-06 21:12 | -2.63128 | -56.54832 | 35935 ft | 464 kts | 263° |
| 2026-05-06 21:12 | -2.63865 | -56.61213 | 35937 ft | 465 kts | 263° |
| 2026-05-06 21:13 | -2.64607 | -56.67647 | 35934 ft | 464 kts | 263° |
| 2026-05-06 21:13 | -2.65344 | -56.74039 | 35931 ft | 464 kts | 263° |
| 2026-05-06 21:14 | -2.66084 | -56.80468 | 35934 ft | 463 kts | 263° |
| 2026-05-06 21:14 | -2.66822 | -56.86876 | 35933 ft | 463 kts | 263° |
| 2026-05-06 21:15 | -2.67554 | -56.93235 | 35927 ft | 463 kts | 263° |
| 2026-05-06 21:15 | -2.68285 | -56.99586 | 35928 ft | 463 kts | 263° |
| 2026-05-06 21:16 | -2.69018 | -57.05965 | 35930 ft | 463 kts | 263° |
| 2026-05-06 21:16 | -2.69753 | -57.12358 | 35929 ft | 463 kts | 263° |
| 2026-05-06 21:17 | -2.70485 | -57.18730 | 35926 ft | 463 kts | 263° |
| 2026-05-06 21:17 | -2.71221 | -57.25139 | 35931 ft | 463 kts | 263° |
| 2026-05-06 21:18 | -2.71952 | -57.31509 | 35935 ft | 463 kts | 263° |
| 2026-05-06 21:18 | -2.72690 | -57.37935 | 35939 ft | 463 kts | 263° |
| 2026-05-06 21:19 | -2.73423 | -57.44333 | 35940 ft | 463 kts | 263° |
| 2026-05-06 21:19 | -2.74154 | -57.50710 | 35940 ft | 463 kts | 263° |
| 2026-05-06 21:20 | -2.74891 | -57.57143 | 35941 ft | 463 kts | 263° |
| 2026-05-06 21:20 | -2.75623 | -57.63532 | 35943 ft | 463 kts | 263° |
| 2026-05-06 21:21 | -2.76354 | -57.69924 | 35947 ft | 462 kts | 263° |
| 2026-05-06 21:21 | -2.77083 | -57.76302 | 35946 ft | 462 kts | 263° |
| 2026-05-06 21:22 | -2.77809 | -57.82708 | 35945 ft | 462 kts | 263° |
| 2026-05-06 21:22 | -2.78528 | -57.89061 | 35943 ft | 461 kts | 263° |
| 2026-05-06 21:23 | -2.79256 | -57.95415 | 35942 ft | 461 kts | 263° |
| 2026-05-06 21:23 | -2.79988 | -58.01804 | 35940 ft | 461 kts | 263° |
| 2026-05-06 21:23 | -2.80351 | -58.04970 | 35794 ft | 461 kts | 263° |
| 2026-05-06 21:24 | -2.80718 | -58.08172 | 35560 ft | 461 kts | 263° |
| 2026-05-06 21:24 | -2.81084 | -58.11374 | 35323 ft | 462 kts | 263° |
| 2026-05-06 21:24 | -2.81446 | -58.14539 | 35093 ft | 462 kts | 263° |
| 2026-05-06 21:24 | -2.81814 | -58.17759 | 34862 ft | 463 kts | 263° |
| 2026-05-06 21:25 | -2.82178 | -58.20940 | 34639 ft | 464 kts | 263° |
| 2026-05-06 21:25 | -2.82546 | -58.24166 | 34410 ft | 464 kts | 263° |
| 2026-05-06 21:25 | -2.82910 | -58.27354 | 34184 ft | 465 kts | 263° |
| 2026-05-06 21:25 | -2.83280 | -58.30591 | 33956 ft | 465 kts | 263° |
| 2026-05-06 21:26 | -2.83645 | -58.33787 | 33704 ft | 466 kts | 263° |
| 2026-05-06 21:26 | -2.84013 | -58.37015 | 33451 ft | 467 kts | 263° |
| 2026-05-06 21:26 | -2.84382 | -58.40243 | 33198 ft | 469 kts | 263° |
| 2026-05-06 21:26 | -2.84755 | -58.43516 | 32947 ft | 470 kts | 263° |
| 2026-05-06 21:27 | -2.85124 | -58.46749 | 32705 ft | 471 kts | 263° |
| 2026-05-06 21:27 | -2.85479 | -58.50034 | 32462 ft | 472 kts | 265° |
| 2026-05-06 21:27 | -2.85643 | -58.53298 | 32215 ft | 474 kts | 267° |
| 2026-05-06 21:27 | -2.85800 | -58.56607 | 31975 ft | 475 kts | 267° |
| 2026-05-06 21:28 | -2.85961 | -58.59917 | 31733 ft | 476 kts | 267° |
| 2026-05-06 21:28 | -2.86121 | -58.63193 | 31500 ft | 477 kts | 267° |
| 2026-05-06 21:28 | -2.86285 | -58.66529 | 31264 ft | 479 kts | 267° |
| 2026-05-06 21:28 | -2.86448 | -58.69866 | 31030 ft | 480 kts | 267° |
| 2026-05-06 21:29 | -2.86612 | -58.73214 | 30798 ft | 482 kts | 267° |
| 2026-05-06 21:29 | -2.86774 | -58.76541 | 30570 ft | 482 kts | 267° |
| 2026-05-06 21:29 | -2.86938 | -58.79900 | 30340 ft | 481 kts | 267° |
| 2026-05-06 21:29 | -2.87101 | -58.83251 | 30115 ft | 480 kts | 267° |
| 2026-05-06 21:30 | -2.87262 | -58.86554 | 29873 ft | 479 kts | 267° |
| 2026-05-06 21:30 | -2.87424 | -58.89891 | 29605 ft | 477 kts | 267° |
| 2026-05-06 21:30 | -2.87586 | -58.93227 | 29337 ft | 475 kts | 267° |
| 2026-05-06 21:30 | -2.87744 | -58.96495 | 28881 ft | 475 kts | 267° |
| 2026-05-06 21:31 | -2.87905 | -58.99808 | 28221 ft | 474 kts | 267° |
| 2026-05-06 21:31 | -2.88065 | -59.03110 | 27578 ft | 470 kts | 267° |
| 2026-05-06 21:31 | -2.88221 | -59.06326 | 26951 ft | 466 kts | 267° |
| 2026-05-06 21:31 | -2.88377 | -59.09553 | 26309 ft | 462 kts | 266° |
| 2026-05-06 21:32 | -2.88533 | -59.12776 | 25657 ft | 459 kts | 266° |
| 2026-05-06 21:32 | -2.88839 | -59.19093 | 24386 ft | 454 kts | 266° |
| 2026-05-06 21:32 | -2.88991 | -59.22245 | 23759 ft | 451 kts | 266° |
| 2026-05-06 21:33 | -2.89143 | -59.25388 | 23046 ft | 449 kts | 266° |
| 2026-05-06 21:33 | -2.89293 | -59.28495 | 22482 ft | 443 kts | 266° |
| 2026-05-06 21:33 | -2.89441 | -59.31541 | 21857 ft | 438 kts | 266° |
| 2026-05-06 21:33 | -2.89587 | -59.34570 | 21232 ft | 434 kts | 266° |
| 2026-05-06 21:34 | -2.89733 | -59.37591 | 20610 ft | 431 kts | 266° |
| 2026-05-06 21:34 | -2.89876 | -59.40558 | 19965 ft | 428 kts | 266° |
| 2026-05-06 21:34 | -2.90018 | -59.43500 | 19355 ft | 425 kts | 266° |
| 2026-05-06 21:34 | -2.90160 | -59.46451 | 18738 ft | 422 kts | 266° |
| 2026-05-06 21:35 | -2.90301 | -59.49383 | 18107 ft | 419 kts | 266° |
| 2026-05-06 21:35 | -2.90440 | -59.52254 | 17514 ft | 414 kts | 266° |
| 2026-05-06 21:35 | -2.90578 | -59.55138 | 16910 ft | 409 kts | 266° |
| 2026-05-06 21:35 | -2.90713 | -59.57955 | 16316 ft | 405 kts | 266° |
| 2026-05-06 21:36 | -2.90847 | -59.60779 | 15718 ft | 401 kts | 267° |
| 2026-05-06 21:36 | -2.90979 | -59.63534 | 15120 ft | 398 kts | 267° |
| 2026-05-06 21:36 | -2.91111 | -59.66312 | 14507 ft | 396 kts | 267° |
| 2026-05-06 21:36 | -2.91240 | -59.69032 | 13933 ft | 393 kts | 267° |
| 2026-05-06 21:37 | -2.91369 | -59.71765 | 13338 ft | 389 kts | 267° |
| 2026-05-06 21:37 | -2.91495 | -59.74439 | 12789 ft | 385 kts | 267° |
| 2026-05-06 21:37 | -2.91622 | -59.77115 | 12221 ft | 381 kts | 267° |
| 2026-05-06 21:37 | -2.91746 | -59.79754 | 11661 ft | 378 kts | 267° |
| 2026-05-06 21:38 | -2.91870 | -59.82374 | 11104 ft | 375 kts | 267° |
| 2026-05-06 21:38 | -2.91991 | -59.84941 | 10536 ft | 372 kts | 267° |
| 2026-05-06 21:38 | -2.92112 | -59.87501 | 10278 ft | 361 kts | 267° |
| 2026-05-06 21:38 | -2.92228 | -59.89966 | 10136 ft | 346 kts | 267° |
| 2026-05-06 21:39 | -2.92340 | -59.92334 | 9981 ft | 333 kts | 267° |
| 2026-05-06 21:39 | -2.92445 | -59.94566 | 9955 ft | 314 kts | 267° |
| 2026-05-06 21:39 | -2.92546 | -59.96705 | 9833 ft | 307 kts | 267° |
| 2026-05-06 21:39 | -2.92648 | -59.98861 | 9559 ft | 310 kts | 267° |
| 2026-05-06 21:40 | -2.92749 | -60.01015 | 9106 ft | 306 kts | 267° |
| 2026-05-06 21:40 | -2.92847 | -60.03100 | 8663 ft | 299 kts | 267° |
| 2026-05-06 21:40 | -2.92944 | -60.05165 | 8218 ft | 292 kts | 267° |
| 2026-05-06 21:40 | -2.93038 | -60.07156 | 7789 ft | 286 kts | 267° |
| 2026-05-06 21:41 | -2.93131 | -60.09128 | 7360 ft | 281 kts | 267° |
| 2026-05-06 21:41 | -2.93191 | -60.10422 | 7078 ft | 278 kts | 267° |
| 2026-05-06 21:41 | -2.93283 | -60.12378 | 6647 ft | 273 kts | 267° |
| 2026-05-06 21:41 | -2.93343 | -60.13659 | 6367 ft | 271 kts | 267° |
| 2026-05-06 21:42 | -2.93429 | -60.15505 | 5922 ft | 267 kts | 267° |
| 2026-05-06 21:42 | -2.93514 | -60.17359 | 5489 ft | 264 kts | 267° |
| 2026-05-06 21:42 | -2.93601 | -60.19195 | 5059 ft | 262 kts | 268° |
| 2026-05-06 21:42 | -2.93833 | -60.20969 | 4631 ft | 259 kts | 249° |
| 2026-05-06 21:43 | -2.94801 | -60.22448 | 4182 ft | 253 kts | 219° |
| 2026-05-06 21:43 | -2.96327 | -60.23236 | 3740 ft | 245 kts | 188° |
| 2026-05-06 21:43 | -2.98007 | -60.23309 | 3322 ft | 241 kts | 173° |
| 2026-05-06 21:43 | -2.99635 | -60.23142 | 3068 ft | 232 kts | 171° |
| 2026-05-06 21:44 | -3.01196 | -60.22987 | 2997 ft | 216 kts | 173° |
| 2026-05-06 21:44 | -3.02624 | -60.22616 | 2993 ft | 207 kts | 145° |
| 2026-05-06 21:44 | -3.03572 | -60.21627 | 2874 ft | 195 kts | 113° |
| 2026-05-06 21:44 | -3.03832 | -60.20358 | 2696 ft | 181 kts | 88° |
| 2026-05-06 21:45 | -3.03820 | -60.19110 | 2327 ft | 181 kts | 87° |
| 2026-05-06 21:45 | -3.03818 | -60.17869 | 1993 ft | 171 kts | 88° |
| 2026-05-06 21:45 | -3.03832 | -60.16733 | 1893 ft | 157 kts | 89° |
| 2026-05-06 21:45 | -3.03834 | -60.15608 | 1840 ft | 166 kts | 88° |
| 2026-05-06 21:46 | -3.03838 | -60.14481 | 1765 ft | 158 kts | 88° |
| 2026-05-06 21:46 | -3.03841 | -60.13422 | 1626 ft | 147 kts | 88° |
| 2026-05-06 21:46 | -3.03843 | -60.12422 | 1449 ft | 141 kts | 87° |
| 2026-05-06 21:46 | -3.03845 | -60.11442 | 1272 ft | 141 kts | 88° |
| 2026-05-06 21:47 | -3.03847 | -60.10457 | 1093 ft | 140 kts | 88° |
| 2026-05-06 21:47 | -3.03849 | -60.09459 | 929 ft | 145 kts | 89° |
| 2026-05-06 21:47 | -3.03851 | -60.08448 | 747 ft | 145 kts | 90° |
| 2026-05-06 21:47 | -3.03855 | -60.07429 | 577 ft | 148 kts | 90° |
| 2026-05-06 21:48 | -3.03856 | -60.06400 | 349 ft | 145 kts | 90° |
| 2026-05-06 21:48 | -3.03856 | -60.05436 | 267 ft | 108 kts | 91° |
| 2026-05-06 21:48 | -3.03859 | -60.05105 | 268 ft | 24 kts | 91° |
| 2026-05-06 21:48 | -3.03862 | -60.04927 | 268 ft | 25 kts | 88° |
| 2026-05-06 21:49 | -3.03858 | -60.04746 | 269 ft | 24 kts | 90° |
| 2026-05-06 21:49 | -3.03860 | -60.04575 | 269 ft | 25 kts | 90° |
| 2026-05-06 21:49 | -3.03862 | -60.04398 | 269 ft | 26 kts | 91° |
| 2026-05-06 21:49 | -3.03862 | -60.04219 | 269 ft | 26 kts | 89° |
| 2026-05-06 21:50 | -3.03862 | -60.04035 | 269 ft | 25 kts | 90° |
| 2026-05-06 21:50 | -3.03862 | -60.03938 | 268 ft | 14 kts | 90° |
| 2026-05-06 21:50 | -3.03856 | -60.03825 | 268 ft | 18 kts | 70° |
| 2026-05-06 21:50 | -3.03755 | -60.03764 | 268 ft | 19 kts | 351° |
| 2026-05-06 21:51 | -3.03687 | -60.03823 | 268 ft | 11 kts | 290° |
| 2026-05-06 21:51 | -3.03664 | -60.03908 | 268 ft | 14 kts | 281° |
| 2026-05-06 21:51 | -3.03637 | -60.04015 | 268 ft | 17 kts | 286° |
| 2026-05-06 21:51 | -3.03604 | -60.04138 | 268 ft | 20 kts | 284° |
| 2026-05-06 21:52 | -3.03546 | -60.04270 | 268 ft | 21 kts | 301° |
| 2026-05-06 21:52 | -3.03431 | -60.04359 | 268 ft | 22 kts | 337° |
| 2026-05-06 21:52 | -3.03319 | -60.04429 | 268 ft | 11 kts | 316° |
| 2026-05-06 21:52 | -3.03248 | -60.04452 | 268 ft | 0 kts | 344° |